sensor_id;sensor_type;location;lat;lon;timestamp;P1;durP1;ratioP1;P2;durP2;ratioP2
1204;SDS011;592;48.764;9.174;2023-07-08T00:01:58;10.43;;;7.10;;
1204;SDS011;592;48.764;9.174;2023-07-08T00:04:24;11.73;;;6.30;;
1204;SDS011;592;48.764;9.174;2023-07-08T00:06:52;13.43;;;6.33;;
1204;SDS011;592;48.764;9.174;2023-07-08T00:09:18;10.17;;;6.43;;
1204;SDS011;592;48.764;9.174;2023-07-08T00:11:46;11.63;;;6.00;;
1204;SDS011;592;48.764;9.174;2023-07-08T00:14:13;11.40;;;6.50;;
1204;SDS011;592;48.764;9.174;2023-07-08T00:16:40;9.13;;;6.00;;
1204;SDS011;592;48.764;9.174;2023-07-08T00:19:09;11.97;;;5.77;;
1204;SDS011;592;48.764;9.174;2023-07-08T00:21:36;11.20;;;6.40;;
1204;SDS011;592;48.764;9.174;2023-07-08T00:24:03;9.43;;;6.17;;
1204;SDS011;592;48.764;9.174;2023-07-08T00:26:30;12.80;;;6.00;;
1204;SDS011;592;48.764;9.174;2023-07-08T00:28:58;9.90;;;6.00;;
1204;SDS011;592;48.764;9.174;2023-07-08T00:31:25;10.77;;;6.33;;
1204;SDS011;592;48.764;9.174;2023-07-08T00:33:53;10.00;;;5.87;;
1204;SDS011;592;48.764;9.174;2023-07-08T00:36:21;9.67;;;6.13;;
1204;SDS011;592;48.764;9.174;2023-07-08T00:38:49;9.30;;;5.77;;
1204;SDS011;592;48.764;9.174;2023-07-08T00:41:16;10.30;;;5.93;;
1204;SDS011;592;48.764;9.174;2023-07-08T00:43:48;10.30;;;5.17;;
1204;SDS011;592;48.764;9.174;2023-07-08T00:46:25;9.97;;;5.60;;
1204;SDS011;592;48.764;9.174;2023-07-08T00:49:01;9.57;;;5.87;;
1204;SDS011;592;48.764;9.174;2023-07-08T00:51:38;8.70;;;5.47;;
1204;SDS011;592;48.764;9.174;2023-07-08T00:54:05;8.63;;;5.70;;
1204;SDS011;592;48.764;9.174;2023-07-08T00:56:38;10.77;;;5.67;;
1204;SDS011;592;48.764;9.174;2023-07-08T00:59:07;10.20;;;5.83;;
1204;SDS011;592;48.764;9.174;2023-07-08T01:01:39;10.00;;;5.40;;
1204;SDS011;592;48.764;9.174;2023-07-08T01:04:09;8.87;;;5.77;;
1204;SDS011;592;48.764;9.174;2023-07-08T01:06:39;10.87;;;6.40;;
1204;SDS011;592;48.764;9.174;2023-07-08T01:09:10;11.43;;;5.53;;
1204;SDS011;592;48.764;9.174;2023-07-08T01:11:39;10.30;;;6.37;;
1204;SDS011;592;48.764;9.174;2023-07-08T01:14:07;12.70;;;6.07;;
1204;SDS011;592;48.764;9.174;2023-07-08T01:16:37;12.40;;;7.10;;
1204;SDS011;592;48.764;9.174;2023-07-08T01:19:04;10.30;;;6.17;;
1204;SDS011;592;48.764;9.174;2023-07-08T01:21:37;9.27;;;6.07;;
1204;SDS011;592;48.764;9.174;2023-07-08T01:24:07;13.00;;;6.57;;
1204;SDS011;592;48.764;9.174;2023-07-08T01:26:37;9.90;;;6.10;;
1204;SDS011;592;48.764;9.174;2023-07-08T01:29:07;12.30;;;7.37;;
1204;SDS011;592;48.764;9.174;2023-07-08T01:31:34;11.07;;;5.90;;
1204;SDS011;592;48.764;9.174;2023-07-08T01:34:01;11.60;;;6.20;;
1204;SDS011;592;48.764;9.174;2023-07-08T01:36:29;11.30;;;6.43;;
1204;SDS011;592;48.764;9.174;2023-07-08T01:39:00;9.03;;;5.90;;
1204;SDS011;592;48.764;9.174;2023-07-08T01:41:29;12.80;;;6.77;;
1204;SDS011;592;48.764;9.174;2023-07-08T01:43:55;15.73;;;6.37;;
1204;SDS011;592;48.764;9.174;2023-07-08T01:46:23;10.00;;;6.43;;
1204;SDS011;592;48.764;9.174;2023-07-08T01:48:52;11.53;;;6.77;;
1204;SDS011;592;48.764;9.174;2023-07-08T01:51:23;8.73;;;5.53;;
1204;SDS011;592;48.764;9.174;2023-07-08T01:53:51;10.53;;;6.20;;
1204;SDS011;592;48.764;9.174;2023-07-08T01:56:18;10.57;;;5.50;;
1204;SDS011;592;48.764;9.174;2023-07-08T01:58:46;10.80;;;6.20;;
1204;SDS011;592;48.764;9.174;2023-07-08T02:01:13;9.07;;;5.20;;
1204;SDS011;592;48.764;9.174;2023-07-08T02:03:39;10.80;;;6.30;;
1204;SDS011;592;48.764;9.174;2023-07-08T02:06:08;8.60;;;5.93;;
1204;SDS011;592;48.764;9.174;2023-07-08T02:08:35;11.30;;;6.10;;
1204;SDS011;592;48.764;9.174;2023-07-08T02:11:02;11.83;;;6.57;;
1204;SDS011;592;48.764;9.174;2023-07-08T02:13:28;11.10;;;6.20;;
1204;SDS011;592;48.764;9.174;2023-07-08T02:15:56;12.80;;;6.00;;
1204;SDS011;592;48.764;9.174;2023-07-08T02:18:23;8.20;;;5.70;;
1204;SDS011;592;48.764;9.174;2023-07-08T02:20:50;10.10;;;5.83;;
1204;SDS011;592;48.764;9.174;2023-07-08T02:23:17;10.27;;;5.70;;
1204;SDS011;592;48.764;9.174;2023-07-08T02:25:49;9.63;;;5.40;;
1204;SDS011;592;48.764;9.174;2023-07-08T02:28:17;8.97;;;5.83;;
1204;SDS011;592;48.764;9.174;2023-07-08T02:30:44;9.30;;;5.67;;
1204;SDS011;592;48.764;9.174;2023-07-08T02:33:12;11.60;;;6.30;;
1204;SDS011;592;48.764;9.174;2023-07-08T02:35:42;10.50;;;6.37;;
1204;SDS011;592;48.764;9.174;2023-07-08T02:38:09;10.60;;;6.10;;
1204;SDS011;592;48.764;9.174;2023-07-08T02:40:36;11.00;;;5.73;;
1204;SDS011;592;48.764;9.174;2023-07-08T02:43:03;11.80;;;6.73;;
1204;SDS011;592;48.764;9.174;2023-07-08T02:45:29;11.27;;;6.27;;
1204;SDS011;592;48.764;9.174;2023-07-08T02:47:56;12.60;;;6.00;;
1204;SDS011;592;48.764;9.174;2023-07-08T02:50:24;9.53;;;6.20;;
1204;SDS011;592;48.764;9.174;2023-07-08T02:52:51;10.97;;;5.67;;
1204;SDS011;592;48.764;9.174;2023-07-08T02:55:17;11.03;;;5.90;;
1204;SDS011;592;48.764;9.174;2023-07-08T02:57:44;12.03;;;7.10;;
1204;SDS011;592;48.764;9.174;2023-07-08T03:00:11;11.13;;;6.57;;
1204;SDS011;592;48.764;9.174;2023-07-08T03:02:39;10.20;;;6.30;;
1204;SDS011;592;48.764;9.174;2023-07-08T03:05:07;7.80;;;4.87;;
1204;SDS011;592;48.764;9.174;2023-07-08T03:07:35;9.20;;;5.83;;
1204;SDS011;592;48.764;9.174;2023-07-08T03:10:02;10.30;;;6.63;;
1204;SDS011;592;48.764;9.174;2023-07-08T03:12:30;9.93;;;5.20;;
1204;SDS011;592;48.764;9.174;2023-07-08T03:14:56;8.07;;;4.97;;
1204;SDS011;592;48.764;9.174;2023-07-08T03:17:23;9.07;;;5.70;;
1204;SDS011;592;48.764;9.174;2023-07-08T03:19:50;12.43;;;7.20;;
1204;SDS011;592;48.764;9.174;2023-07-08T03:22:17;11.67;;;6.10;;
1204;SDS011;592;48.764;9.174;2023-07-08T03:24:45;9.70;;;6.17;;
1204;SDS011;592;48.764;9.174;2023-07-08T03:27:12;11.33;;;6.50;;
1204;SDS011;592;48.764;9.174;2023-07-08T03:29:39;11.03;;;6.30;;
1204;SDS011;592;48.764;9.174;2023-07-08T03:32:07;11.20;;;6.20;;
1204;SDS011;592;48.764;9.174;2023-07-08T03:34:36;14.00;;;6.73;;
1204;SDS011;592;48.764;9.174;2023-07-08T03:37:03;10.50;;;5.97;;
1204;SDS011;592;48.764;9.174;2023-07-08T03:39:30;10.47;;;6.30;;
1204;SDS011;592;48.764;9.174;2023-07-08T03:41:58;12.03;;;6.83;;
1204;SDS011;592;48.764;9.174;2023-07-08T03:44:25;10.20;;;6.30;;
1204;SDS011;592;48.764;9.174;2023-07-08T03:46:52;11.87;;;6.97;;
1204;SDS011;592;48.764;9.174;2023-07-08T03:49:20;9.53;;;6.07;;
1204;SDS011;592;48.764;9.174;2023-07-08T03:51:49;10.33;;;6.47;;
1204;SDS011;592;48.764;9.174;2023-07-08T03:54:17;10.97;;;6.60;;
1204;SDS011;592;48.764;9.174;2023-07-08T03:56:45;10.77;;;5.53;;
1204;SDS011;592;48.764;9.174;2023-07-08T03:59:13;10.83;;;5.73;;
1204;SDS011;592;48.764;9.174;2023-07-08T04:01:39;12.10;;;5.63;;
1204;SDS011;592;48.764;9.174;2023-07-08T04:04:06;8.00;;;5.00;;
1204;SDS011;592;48.764;9.174;2023-07-08T04:06:36;9.30;;;5.77;;
1204;SDS011;592;48.764;9.174;2023-07-08T04:09:03;12.33;;;6.77;;
1204;SDS011;592;48.764;9.174;2023-07-08T04:11:30;12.03;;;6.13;;
1204;SDS011;592;48.764;9.174;2023-07-08T04:13:56;12.03;;;6.80;;
1204;SDS011;592;48.764;9.174;2023-07-08T04:16:25;9.23;;;5.70;;
1204;SDS011;592;48.764;9.174;2023-07-08T04:18:54;12.13;;;6.00;;
1204;SDS011;592;48.764;9.174;2023-07-08T04:21:21;13.07;;;6.33;;
1204;SDS011;592;48.764;9.174;2023-07-08T04:23:50;9.83;;;5.57;;
1204;SDS011;592;48.764;9.174;2023-07-08T04:26:17;10.67;;;5.67;;
1204;SDS011;592;48.764;9.174;2023-07-08T04:28:44;9.40;;;6.30;;
1204;SDS011;592;48.764;9.174;2023-07-08T04:31:11;7.87;;;5.63;;
1204;SDS011;592;48.764;9.174;2023-07-08T04:33:39;10.53;;;5.80;;
1204;SDS011;592;48.764;9.174;2023-07-08T04:36:08;11.83;;;6.67;;
1204;SDS011;592;48.764;9.174;2023-07-08T04:38:38;9.73;;;5.70;;
1204;SDS011;592;48.764;9.174;2023-07-08T04:41:06;10.03;;;6.20;;
1204;SDS011;592;48.764;9.174;2023-07-08T04:43:33;9.00;;;6.20;;
1204;SDS011;592;48.764;9.174;2023-07-08T04:46:00;14.13;;;6.27;;
1204;SDS011;592;48.764;9.174;2023-07-08T04:48:27;10.60;;;6.30;;
1204;SDS011;592;48.764;9.174;2023-07-08T04:50:55;9.60;;;6.40;;
1204;SDS011;592;48.764;9.174;2023-07-08T04:53:22;8.70;;;5.47;;
1204;SDS011;592;48.764;9.174;2023-07-08T04:55:50;10.70;;;6.50;;
1204;SDS011;592;48.764;9.174;2023-07-08T04:58:19;10.77;;;6.77;;
1204;SDS011;592;48.764;9.174;2023-07-08T05:00:46;9.50;;;5.90;;
1204;SDS011;592;48.764;9.174;2023-07-08T05:03:13;10.07;;;5.30;;
1204;SDS011;592;48.764;9.174;2023-07-08T05:05:40;11.30;;;5.93;;
1204;SDS011;592;48.764;9.174;2023-07-08T05:08:08;11.13;;;6.50;;
1204;SDS011;592;48.764;9.174;2023-07-08T05:10:35;10.90;;;6.60;;
1204;SDS011;592;48.764;9.174;2023-07-08T05:13:02;9.80;;;6.00;;
1204;SDS011;592;48.764;9.174;2023-07-08T05:15:29;9.50;;;5.93;;
1204;SDS011;592;48.764;9.174;2023-07-08T05:17:55;10.97;;;6.77;;
1204;SDS011;592;48.764;9.174;2023-07-08T05:20:22;11.07;;;6.80;;
1204;SDS011;592;48.764;9.174;2023-07-08T05:22:49;10.20;;;6.43;;
1204;SDS011;592;48.764;9.174;2023-07-08T05:25:17;10.80;;;6.27;;
1204;SDS011;592;48.764;9.174;2023-07-08T05:27:45;10.10;;;6.37;;
1204;SDS011;592;48.764;9.174;2023-07-08T05:30:13;9.07;;;5.93;;
1204;SDS011;592;48.764;9.174;2023-07-08T05:32:41;10.47;;;6.23;;
1204;SDS011;592;48.764;9.174;2023-07-08T05:35:09;12.63;;;6.70;;
1204;SDS011;592;48.764;9.174;2023-07-08T05:37:36;12.97;;;6.57;;
1204;SDS011;592;48.764;9.174;2023-07-08T05:40:05;9.37;;;6.30;;
1204;SDS011;592;48.764;9.174;2023-07-08T05:42:34;16.03;;;7.57;;
1204;SDS011;592;48.764;9.174;2023-07-08T05:45:01;13.63;;;6.70;;
1204;SDS011;592;48.764;9.174;2023-07-08T05:47:28;11.07;;;6.63;;
1204;SDS011;592;48.764;9.174;2023-07-08T05:49:55;10.50;;;5.90;;
1204;SDS011;592;48.764;9.174;2023-07-08T05:52:22;11.23;;;6.37;;
1204;SDS011;592;48.764;9.174;2023-07-08T05:54:49;10.60;;;6.60;;
1204;SDS011;592;48.764;9.174;2023-07-08T05:57:15;12.23;;;6.13;;
1204;SDS011;592;48.764;9.174;2023-07-08T05:59:44;11.53;;;6.10;;
1204;SDS011;592;48.764;9.174;2023-07-08T06:02:10;13.50;;;6.87;;
1204;SDS011;592;48.764;9.174;2023-07-08T06:04:38;12.87;;;6.43;;
1204;SDS011;592;48.764;9.174;2023-07-08T06:07:05;13.33;;;6.90;;
1204;SDS011;592;48.764;9.174;2023-07-08T06:09:32;13.07;;;6.80;;
1204;SDS011;592;48.764;9.174;2023-07-08T06:11:58;13.07;;;7.07;;
1204;SDS011;592;48.764;9.174;2023-07-08T06:14:26;10.20;;;6.00;;
1204;SDS011;592;48.764;9.174;2023-07-08T06:16:54;10.00;;;5.87;;
1204;SDS011;592;48.764;9.174;2023-07-08T06:19:20;10.80;;;5.80;;
1204;SDS011;592;48.764;9.174;2023-07-08T06:21:47;8.80;;;5.90;;
1204;SDS011;592;48.764;9.174;2023-07-08T06:24:14;11.30;;;6.23;;
1204;SDS011;592;48.764;9.174;2023-07-08T06:26:40;9.97;;;5.70;;
1204;SDS011;592;48.764;9.174;2023-07-08T06:29:07;9.87;;;6.40;;
1204;SDS011;592;48.764;9.174;2023-07-08T06:31:34;10.67;;;6.10;;
1204;SDS011;592;48.764;9.174;2023-07-08T06:34:02;12.00;;;6.73;;
1204;SDS011;592;48.764;9.174;2023-07-08T06:36:29;10.73;;;6.37;;
1204;SDS011;592;48.764;9.174;2023-07-08T06:38:56;9.47;;;5.23;;
1204;SDS011;592;48.764;9.174;2023-07-08T06:41:23;11.67;;;6.50;;
1204;SDS011;592;48.764;9.174;2023-07-08T06:43:49;9.80;;;5.27;;
1204;SDS011;592;48.764;9.174;2023-07-08T06:46:16;9.30;;;5.80;;
1204;SDS011;592;48.764;9.174;2023-07-08T06:48:43;8.57;;;5.23;;
1204;SDS011;592;48.764;9.174;2023-07-08T06:51:11;11.63;;;5.03;;
1204;SDS011;592;48.764;9.174;2023-07-08T06:53:38;9.70;;;5.50;;
1204;SDS011;592;48.764;9.174;2023-07-08T06:56:05;10.50;;;4.90;;
1204;SDS011;592;48.764;9.174;2023-07-08T06:58:34;6.90;;;4.57;;
1204;SDS011;592;48.764;9.174;2023-07-08T07:01:01;9.90;;;5.23;;
1204;SDS011;592;48.764;9.174;2023-07-08T07:03:27;9.63;;;5.23;;
1204;SDS011;592;48.764;9.174;2023-07-08T07:06:03;10.87;;;5.83;;
1204;SDS011;592;48.764;9.174;2023-07-08T07:08:31;8.80;;;4.87;;
1204;SDS011;592;48.764;9.174;2023-07-08T07:10:58;14.17;;;5.27;;
1204;SDS011;592;48.764;9.174;2023-07-08T07:13:25;8.60;;;4.67;;
1204;SDS011;592;48.764;9.174;2023-07-08T07:15:52;10.73;;;4.97;;
1204;SDS011;592;48.764;9.174;2023-07-08T07:18:18;10.73;;;5.03;;
1204;SDS011;592;48.764;9.174;2023-07-08T07:20:49;9.00;;;4.80;;
1204;SDS011;592;48.764;9.174;2023-07-08T07:23:16;7.27;;;4.03;;
1204;SDS011;592;48.764;9.174;2023-07-08T07:25:45;7.60;;;4.30;;
1204;SDS011;592;48.764;9.174;2023-07-08T07:28:13;7.60;;;5.00;;
1204;SDS011;592;48.764;9.174;2023-07-08T07:30:41;7.60;;;4.37;;
1204;SDS011;592;48.764;9.174;2023-07-08T07:33:08;10.70;;;4.73;;
1204;SDS011;592;48.764;9.174;2023-07-08T07:35:35;7.23;;;4.37;;
1204;SDS011;592;48.764;9.174;2023-07-08T07:38:02;8.50;;;4.47;;
1204;SDS011;592;48.764;9.174;2023-07-08T07:40:29;7.33;;;3.73;;
1204;SDS011;592;48.764;9.174;2023-07-08T07:42:57;7.70;;;5.00;;
1204;SDS011;592;48.764;9.174;2023-07-08T07:45:24;9.10;;;4.70;;
1204;SDS011;592;48.764;9.174;2023-07-08T07:47:50;9.33;;;5.20;;
1204;SDS011;592;48.764;9.174;2023-07-08T07:50:17;10.17;;;4.30;;
1204;SDS011;592;48.764;9.174;2023-07-08T07:52:44;9.30;;;4.13;;
1204;SDS011;592;48.764;9.174;2023-07-08T07:55:11;6.83;;;4.00;;
1204;SDS011;592;48.764;9.174;2023-07-08T07:57:38;7.93;;;4.20;;
1204;SDS011;592;48.764;9.174;2023-07-08T08:00:08;6.00;;;3.77;;
1204;SDS011;592;48.764;9.174;2023-07-08T08:02:36;7.63;;;3.70;;
1204;SDS011;592;48.764;9.174;2023-07-08T08:05:03;6.97;;;4.10;;
1204;SDS011;592;48.764;9.174;2023-07-08T08:07:30;6.63;;;4.20;;
1204;SDS011;592;48.764;9.174;2023-07-08T08:09:57;10.30;;;4.17;;
1204;SDS011;592;48.764;9.174;2023-07-08T08:12:24;6.93;;;3.73;;
1204;SDS011;592;48.764;9.174;2023-07-08T08:14:50;8.07;;;4.07;;
1204;SDS011;592;48.764;9.174;2023-07-08T08:17:19;8.13;;;4.20;;
1204;SDS011;592;48.764;9.174;2023-07-08T08:19:45;10.20;;;4.33;;
1204;SDS011;592;48.764;9.174;2023-07-08T08:22:12;8.30;;;3.73;;
1204;SDS011;592;48.764;9.174;2023-07-08T08:24:40;7.60;;;3.70;;
1204;SDS011;592;48.764;9.174;2023-07-08T08:27:06;8.27;;;4.40;;
1204;SDS011;592;48.764;9.174;2023-07-08T08:29:33;6.00;;;3.40;;
1204;SDS011;592;48.764;9.174;2023-07-08T08:32:00;6.17;;;3.60;;
1204;SDS011;592;48.764;9.174;2023-07-08T08:34:28;5.83;;;3.07;;
1204;SDS011;592;48.764;9.174;2023-07-08T08:36:56;7.13;;;4.33;;
1204;SDS011;592;48.764;9.174;2023-07-08T08:39:23;6.90;;;4.07;;
1204;SDS011;592;48.764;9.174;2023-07-08T08:41:51;7.50;;;3.13;;
1204;SDS011;592;48.764;9.174;2023-07-08T08:44:27;5.67;;;3.40;;
1204;SDS011;592;48.764;9.174;2023-07-08T08:46:58;6.80;;;3.57;;
1204;SDS011;592;48.764;9.174;2023-07-08T08:49:35;7.07;;;3.53;;
1204;SDS011;592;48.764;9.174;2023-07-08T08:52:08;5.47;;;2.90;;
1204;SDS011;592;48.764;9.174;2023-07-08T08:54:34;5.30;;;3.00;;
1204;SDS011;592;48.764;9.174;2023-07-08T08:57:05;7.27;;;3.33;;
1204;SDS011;592;48.764;9.174;2023-07-08T08:59:42;6.40;;;3.50;;
1204;SDS011;592;48.764;9.174;2023-07-08T09:02:18;10.37;;;3.53;;
1204;SDS011;592;48.764;9.174;2023-07-08T09:04:54;7.10;;;3.20;;
1204;SDS011;592;48.764;9.174;2023-07-08T09:07:24;9.70;;;3.20;;
1204;SDS011;592;48.764;9.174;2023-07-08T09:09:53;7.07;;;3.13;;
1204;SDS011;592;48.764;9.174;2023-07-08T09:12:27;6.13;;;3.10;;
1204;SDS011;592;48.764;9.174;2023-07-08T09:14:57;7.83;;;3.17;;
1204;SDS011;592;48.764;9.174;2023-07-08T09:17:26;7.20;;;3.03;;
1204;SDS011;592;48.764;9.174;2023-07-08T09:19:59;5.63;;;2.60;;
1204;SDS011;592;48.764;9.174;2023-07-08T09:22:34;6.67;;;3.80;;
1204;SDS011;592;48.764;9.174;2023-07-08T09:25:10;6.60;;;2.90;;
1204;SDS011;592;48.764;9.174;2023-07-08T09:27:46;9.57;;;3.63;;
1204;SDS011;592;48.764;9.174;2023-07-08T09:30:13;8.13;;;3.60;;
1204;SDS011;592;48.764;9.174;2023-07-08T09:32:42;6.80;;;3.33;;
1204;SDS011;592;48.764;9.174;2023-07-08T09:35:16;5.87;;;3.40;;
1204;SDS011;592;48.764;9.174;2023-07-08T09:37:45;5.07;;;3.03;;
1204;SDS011;592;48.764;9.174;2023-07-08T09:40:15;5.53;;;2.70;;
1204;SDS011;592;48.764;9.174;2023-07-08T09:42:44;4.93;;;2.70;;
1204;SDS011;592;48.764;9.174;2023-07-08T09:45:16;5.70;;;2.70;;
1204;SDS011;592;48.764;9.174;2023-07-08T09:47:44;6.13;;;3.20;;
1204;SDS011;592;48.764;9.174;2023-07-08T09:50:19;6.73;;;3.30;;
1204;SDS011;592;48.764;9.174;2023-07-08T09:52:47;5.33;;;2.53;;
1204;SDS011;592;48.764;9.174;2023-07-08T09:55:15;6.13;;;3.37;;
1204;SDS011;592;48.764;9.174;2023-07-08T09:57:43;6.93;;;2.80;;
1204;SDS011;592;48.764;9.174;2023-07-08T10:00:12;5.10;;;2.73;;
1204;SDS011;592;48.764;9.174;2023-07-08T10:02:41;5.60;;;2.87;;
1204;SDS011;592;48.764;9.174;2023-07-08T10:05:12;6.33;;;3.27;;
1204;SDS011;592;48.764;9.174;2023-07-08T10:07:43;7.70;;;3.43;;
1204;SDS011;592;48.764;9.174;2023-07-08T10:10:12;6.67;;;3.13;;
1204;SDS011;592;48.764;9.174;2023-07-08T10:12:53;5.10;;;2.87;;
1204;SDS011;592;48.764;9.174;2023-07-08T10:15:31;5.50;;;3.13;;
1204;SDS011;592;48.764;9.174;2023-07-08T10:18:01;6.97;;;3.10;;
1204;SDS011;592;48.764;9.174;2023-07-08T10:20:29;7.70;;;3.23;;
1204;SDS011;592;48.764;9.174;2023-07-08T10:23:13;7.13;;;3.50;;
1204;SDS011;592;48.764;9.174;2023-07-08T10:25:49;7.37;;;4.13;;
1204;SDS011;592;48.764;9.174;2023-07-08T10:28:24;6.40;;;3.67;;
1204;SDS011;592;48.764;9.174;2023-07-08T10:33:58;6.97;;;4.00;;
1204;SDS011;592;48.764;9.174;2023-07-08T10:36:48;8.87;;;3.97;;
1204;SDS011;592;48.764;9.174;2023-07-08T10:39:27;5.47;;;3.90;;
1204;SDS011;592;48.764;9.174;2023-07-08T10:42:10;6.03;;;3.50;;
1204;SDS011;592;48.764;9.174;2023-07-08T10:44:45;6.50;;;3.20;;
1204;SDS011;592;48.764;9.174;2023-07-08T10:47:33;8.70;;;5.10;;
1204;SDS011;592;48.764;9.174;2023-07-08T10:50:15;5.80;;;3.27;;
1204;SDS011;592;48.764;9.174;2023-07-08T10:52:54;9.33;;;4.60;;
1204;SDS011;592;48.764;9.174;2023-07-08T10:55:35;7.73;;;3.17;;
1204;SDS011;592;48.764;9.174;2023-07-08T10:58:19;8.60;;;3.47;;
1204;SDS011;592;48.764;9.174;2023-07-08T11:12:14;7.00;;;3.10;;
1204;SDS011;592;48.764;9.174;2023-07-08T11:14:49;4.77;;;2.57;;
1204;SDS011;592;48.764;9.174;2023-07-08T11:17:19;6.20;;;3.47;;
1204;SDS011;592;48.764;9.174;2023-07-08T11:19:52;5.27;;;3.10;;
1204;SDS011;592;48.764;9.174;2023-07-08T11:22:23;5.60;;;3.00;;
1204;SDS011;592;48.764;9.174;2023-07-08T11:24:53;5.53;;;2.70;;
1204;SDS011;592;48.764;9.174;2023-07-08T11:27:23;6.73;;;3.40;;
1204;SDS011;592;48.764;9.174;2023-07-08T11:29:57;7.40;;;3.50;;
1204;SDS011;592;48.764;9.174;2023-07-08T11:32:28;5.80;;;3.10;;
1204;SDS011;592;48.764;9.174;2023-07-08T11:34:57;5.33;;;2.70;;
1204;SDS011;592;48.764;9.174;2023-07-08T11:37:26;12.33;;;3.23;;
1204;SDS011;592;48.764;9.174;2023-07-08T11:39:55;12.60;;;2.83;;
1204;SDS011;592;48.764;9.174;2023-07-08T11:42:29;5.43;;;3.03;;
1204;SDS011;592;48.764;9.174;2023-07-08T11:45:00;9.57;;;3.73;;
1204;SDS011;592;48.764;9.174;2023-07-08T11:47:33;8.80;;;3.17;;
1204;SDS011;592;48.764;9.174;2023-07-08T11:50:02;7.47;;;3.40;;
1204;SDS011;592;48.764;9.174;2023-07-08T11:52:29;7.97;;;4.23;;
1204;SDS011;592;48.764;9.174;2023-07-08T11:54:58;9.13;;;5.03;;
1204;SDS011;592;48.764;9.174;2023-07-08T11:57:36;6.60;;;3.40;;
1204;SDS011;592;48.764;9.174;2023-07-08T12:00:12;5.60;;;2.97;;
1204;SDS011;592;48.764;9.174;2023-07-08T12:02:50;5.40;;;3.13;;
1204;SDS011;592;48.764;9.174;2023-07-08T12:05:29;6.40;;;3.00;;
1204;SDS011;592;48.764;9.174;2023-07-08T12:07:58;6.70;;;2.80;;
1204;SDS011;592;48.764;9.174;2023-07-08T12:10:26;5.17;;;3.10;;
1204;SDS011;592;48.764;9.174;2023-07-08T12:12:59;6.07;;;3.00;;
1204;SDS011;592;48.764;9.174;2023-07-08T12:15:26;5.80;;;3.47;;
1204;SDS011;592;48.764;9.174;2023-07-08T12:17:55;6.00;;;3.40;;
1204;SDS011;592;48.764;9.174;2023-07-08T12:20:26;8.17;;;3.70;;
1204;SDS011;592;48.764;9.174;2023-07-08T12:22:55;4.70;;;2.90;;
1204;SDS011;592;48.764;9.174;2023-07-08T12:25:23;5.73;;;2.97;;
1204;SDS011;592;48.764;9.174;2023-07-08T12:27:54;7.43;;;3.73;;
1204;SDS011;592;48.764;9.174;2023-07-08T12:30:23;6.63;;;3.30;;
1204;SDS011;592;48.764;9.174;2023-07-08T12:32:55;8.37;;;3.00;;
1204;SDS011;592;48.764;9.174;2023-07-08T12:35:29;7.07;;;2.93;;
1204;SDS011;592;48.764;9.174;2023-07-08T12:37:59;5.30;;;2.60;;
1204;SDS011;592;48.764;9.174;2023-07-08T12:40:28;8.00;;;3.50;;
1204;SDS011;592;48.764;9.174;2023-07-08T12:42:56;7.73;;;3.30;;
1204;SDS011;592;48.764;9.174;2023-07-08T12:45:26;6.00;;;3.17;;
1204;SDS011;592;48.764;9.174;2023-07-08T12:47:56;6.68;;;3.20;;
1204;SDS011;592;48.764;9.174;2023-07-08T12:50:22;7.00;;;3.40;;
1204;SDS011;592;48.764;9.174;2023-07-08T12:52:49;14.90;;;6.30;;
1204;SDS011;592;48.764;9.174;2023-07-08T12:58:20;5.67;;;2.90;;
1204;SDS011;592;48.764;9.174;2023-07-08T13:00:51;6.10;;;3.13;;
1204;SDS011;592;48.764;9.174;2023-07-08T13:03:20;6.50;;;2.77;;
1204;SDS011;592;48.764;9.174;2023-07-08T13:05:50;6.17;;;3.07;;
1204;SDS011;592;48.764;9.174;2023-07-08T13:08:20;6.10;;;2.60;;
1204;SDS011;592;48.764;9.174;2023-07-08T13:10:49;5.30;;;2.93;;
1204;SDS011;592;48.764;9.174;2023-07-08T13:13:19;6.30;;;3.23;;
1204;SDS011;592;48.764;9.174;2023-07-08T13:15:48;5.63;;;2.83;;
1204;SDS011;592;48.764;9.174;2023-07-08T13:18:17;6.67;;;3.27;;
1204;SDS011;592;48.764;9.174;2023-07-08T13:20:46;5.10;;;2.67;;
1204;SDS011;592;48.764;9.174;2023-07-08T13:23:16;7.17;;;3.03;;
1204;SDS011;592;48.764;9.174;2023-07-08T13:25:42;5.30;;;2.27;;
1204;SDS011;592;48.764;9.174;2023-07-08T13:28:16;5.13;;;2.57;;
1204;SDS011;592;48.764;9.174;2023-07-08T13:30:50;9.63;;;2.30;;
1204;SDS011;592;48.764;9.174;2023-07-08T13:33:20;6.87;;;2.87;;
1204;SDS011;592;48.764;9.174;2023-07-08T13:35:47;5.13;;;2.77;;
1204;SDS011;592;48.764;9.174;2023-07-08T13:38:17;5.90;;;2.53;;
1204;SDS011;592;48.764;9.174;2023-07-08T13:40:45;4.80;;;2.30;;
1204;SDS011;592;48.764;9.174;2023-07-08T13:43:14;5.43;;;2.70;;
1204;SDS011;592;48.764;9.174;2023-07-08T13:45:43;4.93;;;2.90;;
1204;SDS011;592;48.764;9.174;2023-07-08T13:48:13;4.90;;;2.77;;
1204;SDS011;592;48.764;9.174;2023-07-08T13:50:46;5.83;;;3.00;;
1204;SDS011;592;48.764;9.174;2023-07-08T13:53:21;5.40;;;2.77;;
1204;SDS011;592;48.764;9.174;2023-07-08T13:55:58;6.50;;;2.97;;
1204;SDS011;592;48.764;9.174;2023-07-08T13:58:26;4.13;;;2.37;;
1204;SDS011;592;48.764;9.174;2023-07-08T14:00:54;4.27;;;2.37;;
1204;SDS011;592;48.764;9.174;2023-07-08T14:03:21;5.07;;;2.63;;
1204;SDS011;592;48.764;9.174;2023-07-08T14:05:51;5.47;;;3.00;;
1204;SDS011;592;48.764;9.174;2023-07-08T14:08:18;8.03;;;2.97;;
1204;SDS011;592;48.764;9.174;2023-07-08T14:10:45;4.77;;;2.63;;
1204;SDS011;592;48.764;9.174;2023-07-08T14:13:12;5.57;;;2.63;;
1204;SDS011;592;48.764;9.174;2023-07-08T14:15:40;4.77;;;2.37;;
1204;SDS011;592;48.764;9.174;2023-07-08T14:18:08;5.30;;;2.47;;
1204;SDS011;592;48.764;9.174;2023-07-08T14:20:36;4.00;;;2.40;;
1204;SDS011;592;48.764;9.174;2023-07-08T14:23:04;5.40;;;2.90;;
1204;SDS011;592;48.764;9.174;2023-07-08T14:25:33;4.80;;;2.73;;
1204;SDS011;592;48.764;9.174;2023-07-08T14:28:00;4.33;;;2.43;;
1204;SDS011;592;48.764;9.174;2023-07-08T14:30:27;4.10;;;2.50;;
1204;SDS011;592;48.764;9.174;2023-07-08T14:32:54;7.33;;;2.90;;
1204;SDS011;592;48.764;9.174;2023-07-08T14:35:23;5.17;;;2.80;;
1204;SDS011;592;48.764;9.174;2023-07-08T14:37:51;5.90;;;3.03;;
1204;SDS011;592;48.764;9.174;2023-07-08T14:40:21;4.40;;;2.50;;
1204;SDS011;592;48.764;9.174;2023-07-08T14:42:52;6.63;;;2.87;;
1204;SDS011;592;48.764;9.174;2023-07-08T14:45:26;5.00;;;2.90;;
1204;SDS011;592;48.764;9.174;2023-07-08T14:47:55;5.90;;;2.50;;
1204;SDS011;592;48.764;9.174;2023-07-08T14:50:21;4.50;;;2.53;;
1204;SDS011;592;48.764;9.174;2023-07-08T14:52:50;4.40;;;2.50;;
1204;SDS011;592;48.764;9.174;2023-07-08T14:55:18;5.27;;;2.30;;
1204;SDS011;592;48.764;9.174;2023-07-08T14:57:46;8.17;;;3.23;;
1204;SDS011;592;48.764;9.174;2023-07-08T15:00:15;5.13;;;2.50;;
1204;SDS011;592;48.764;9.174;2023-07-08T15:02:44;6.50;;;2.60;;
1204;SDS011;592;48.764;9.174;2023-07-08T15:05:13;4.40;;;2.13;;
1204;SDS011;592;48.764;9.174;2023-07-08T15:07:42;5.37;;;2.70;;
1204;SDS011;592;48.764;9.174;2023-07-08T15:10:09;5.50;;;3.00;;
1204;SDS011;592;48.764;9.174;2023-07-08T15:12:37;5.63;;;2.97;;
1204;SDS011;592;48.764;9.174;2023-07-08T15:15:08;6.20;;;2.97;;
1204;SDS011;592;48.764;9.174;2023-07-08T15:17:40;7.30;;;2.77;;
1204;SDS011;592;48.764;9.174;2023-07-08T15:20:09;5.50;;;2.57;;
1204;SDS011;592;48.764;9.174;2023-07-08T15:22:39;5.23;;;2.73;;
1204;SDS011;592;48.764;9.174;2023-07-08T15:25:08;5.03;;;2.90;;
1204;SDS011;592;48.764;9.174;2023-07-08T15:27:36;4.30;;;2.50;;
1204;SDS011;592;48.764;9.174;2023-07-08T15:30:03;5.47;;;2.73;;
1204;SDS011;592;48.764;9.174;2023-07-08T15:32:40;4.63;;;2.90;;
1204;SDS011;592;48.764;9.174;2023-07-08T15:35:10;4.60;;;2.60;;
1204;SDS011;592;48.764;9.174;2023-07-08T15:37:38;6.47;;;2.53;;
1204;SDS011;592;48.764;9.174;2023-07-08T15:40:06;5.50;;;2.67;;
1204;SDS011;592;48.764;9.174;2023-07-08T15:42:34;5.00;;;2.80;;
1204;SDS011;592;48.764;9.174;2023-07-08T15:45:01;5.50;;;3.10;;
1204;SDS011;592;48.764;9.174;2023-07-08T15:47:29;4.87;;;2.80;;
1204;SDS011;592;48.764;9.174;2023-07-08T15:49:56;5.37;;;3.20;;
1204;SDS011;592;48.764;9.174;2023-07-08T15:52:23;4.53;;;2.10;;
1204;SDS011;592;48.764;9.174;2023-07-08T15:54:50;5.23;;;3.00;;